Skelton, Minnesota
Current Conditions -  °F | °C
As of 11:33 PM on Wednesday 22 Oct 2014 (Local Time) from KMZH Reporting Station
Scattered Clouds Scattered Clouds  
Wind Chill: 50°   Ceiling: Unl
Heat Index: 50°   Visibility: 10mi
Dew Point: 37°   Wind: 7mph
Humidity: 62%   Direction: 180°S
Pressure: 29.99"   Gusts: NA
Location:  46.5379°N, 92.621°W
Report Text: KMZH 230433Z AUTO 18006KT 10SM SCT065 10/03 A2999 RMK AO2
Loading
Personal Weather Stations






























Interactive Weather Map
Tropical Storm Tracking
New forecast layout! Learn more

10-Day Weather Forecast

Advertisements
Track Severe Weather on mobile